Time;durP1;ratioP1;P1;durP2;ratioP2;P2;SDS_P1;SDS_P2;PMS_P1;PMS_P2;Temp;Humidity;BMP_temperature;BMP_pressure;BME280_temperature;BME280_humidity;BME280_pressure;Samples;Min_cycle;Max_cycle;Signal;HPM_P1;HPM_P2
2022/03/05 00:00:51;;;;;;;20.73;12.02;;;0.60;99.90;;;;;;5051367;28;20063;-36
2022/03/05 00:03:18;;;;;;;16.48;11.00;;;0.60;99.90;;;;;;5048509;28;20132;-36
2022/03/05 00:05:45;;;;;;;19.55;12.52;;;0.60;99.90;;;;;;5050252;28;20404;-36
2022/03/05 00:08:11;;;;;;;18.00;11.75;;;0.50;99.90;;;;;;5050770;28;20137;-36
2022/03/05 00:10:38;;;;;;;21.25;13.75;;;0.50;99.90;;;;;;5051183;28;20086;-37
2022/03/05 00:13:06;;;;;;;21.73;13.82;;;0.50;99.90;;;;;;5047067;28;20045;-36
2022/03/05 00:15:33;;;;;;;22.50;13.63;;;0.40;99.90;;;;;;5031613;28;20057;-36
2022/03/05 00:18:00;;;;;;;21.85;14.10;;;0.40;99.90;;;;;;5039909;28;20041;-36
2022/03/05 00:20:27;;;;;;;25.58;13.50;;;0.40;99.90;;;;;;5050954;28;20049;-36
2022/03/05 00:22:54;;;;;;;25.40;15.43;;;0.30;99.90;;;;;;5049541;28;20047;-36
2022/03/05 00:25:20;;;;;;;23.83;15.02;;;0.30;99.90;;;;;;5044586;28;20045;-36
2022/03/05 00:27:47;;;;;;;21.17;13.27;;;0.20;99.90;;;;;;5043861;28;20120;-35
2022/03/05 00:30:18;;;;;;;21.67;14.02;;;0.20;99.90;;;;;;5051161;28;20076;-37
2022/03/05 00:32:45;;;;;;;21.83;13.98;;;0.20;99.90;;;;;;5039423;28;20053;-36
2022/03/05 00:35:12;;;;;;;21.85;13.38;;;0.10;99.90;;;;;;5038571;28;20452;-36
2022/03/05 00:37:39;;;;;;;22.25;13.93;;;0.10;99.90;;;;;;5045045;28;20059;-36
2022/03/05 00:40:07;;;;;;;21.48;13.27;;;0.10;99.90;;;;;;5039053;28;20054;-36
2022/03/05 00:42:33;;;;;;;22.38;13.90;;;0.10;99.90;;;;;;5038938;28;20150;-37
2022/03/05 00:45:00;;;;;;;22.90;14.70;;;0.10;99.90;;;;;;5050500;28;20053;-36
2022/03/05 00:47:28;;;;;;;21.00;13.27;;;0.10;99.90;;;;;;5047830;28;20061;-37
2022/03/05 00:49:55;;;;;;;24.15;14.15;;;0.00;99.90;;;;;;5043394;28;20053;-37
2022/03/05 00:52:22;;;;;;;24.88;14.27;;;0.00;99.90;;;;;;5050499;28;20526;-37
2022/03/05 00:54:48;;;;;;;21.27;13.40;;;0.00;99.90;;;;;;5040989;28;20053;-38
2022/03/05 00:57:15;;;;;;;24.50;14.40;;;0.00;99.90;;;;;;5049436;28;20132;-37
2022/03/05 00:59:42;;;;;;;23.13;14.15;;;0.00;99.90;;;;;;5038021;28;20056;-37
2022/03/05 01:02:09;;;;;;;19.50;13.25;;;-0.10;99.90;;;;;;5039758;28;20063;-37
2022/03/05 01:04:37;;;;;;;22.35;13.60;;;-0.10;99.90;;;;;;5049895;28;20477;-37
2022/03/05 01:07:04;;;;;;;19.95;11.00;;;-0.10;99.90;;;;;;5049547;28;20045;-38
2022/03/05 01:09:30;;;;;;;24.42;14.20;;;-0.10;99.90;;;;;;5052545;28;20053;-37
2022/03/05 01:11:57;;;;;;;22.08;14.00;;;-0.10;99.90;;;;;;5054329;28;20063;-37
2022/03/05 01:14:24;;;;;;;24.63;14.35;;;-0.10;99.90;;;;;;5044376;28;20059;-37
2022/03/05 01:16:50;;;;;;;21.08;13.32;;;-0.20;99.90;;;;;;5052293;28;20045;-37
2022/03/05 01:19:17;;;;;;;22.10;13.55;;;-0.20;99.90;;;;;;5053781;28;20053;-36
2022/03/05 01:21:45;;;;;;;29.48;14.90;;;-0.20;99.90;;;;;;5048878;28;20059;-36
2022/03/05 01:24:12;;;;;;;24.90;14.48;;;-0.20;99.90;;;;;;5049590;28;20381;-36
2022/03/05 01:26:39;;;;;;;23.55;14.63;;;-0.20;99.90;;;;;;5054214;28;20068;-37
2022/03/05 01:29:05;;;;;;;21.73;13.00;;;-0.30;99.90;;;;;;5051562;28;20052;-37
2022/03/05 01:31:32;;;;;;;22.77;13.90;;;-0.30;99.90;;;;;;5053698;28;20504;-37
2022/03/05 01:33:59;;;;;;;22.80;14.77;;;-0.30;99.90;;;;;;5052128;28;20063;-37
2022/03/05 01:36:25;;;;;;;24.02;13.90;;;-0.30;99.90;;;;;;5054257;28;20485;-37
2022/03/05 01:38:53;;;;;;;21.92;12.65;;;-0.40;99.90;;;;;;5052331;28;20055;-36
2022/03/05 01:41:20;;;;;;;21.60;13.32;;;-0.40;99.90;;;;;;5053380;28;20465;-37
2022/03/05 01:43:50;;;;;;;23.30;13.98;;;-0.40;99.90;;;;;;5053831;28;20077;-37
2022/03/05 01:46:28;;;;;;;25.42;14.65;;;-0.40;99.90;;;;;;5053188;28;20080;-37
2022/03/05 01:48:54;;;;;;;22.80;13.60;;;-0.40;99.90;;;;;;5051734;28;20092;-37
2022/03/05 01:51:21;;;;;;;19.55;12.35;;;-0.50;99.90;;;;;;5054613;28;20053;-37
2022/03/05 01:53:48;;;;;;;20.60;12.82;;;-0.60;99.90;;;;;;5052536;28;20136;-36
2022/03/05 01:56:16;;;;;;;21.85;12.25;;;-0.50;99.90;;;;;;5052803;28;20144;-37
2022/03/05 01:58:43;;;;;;;19.60;11.43;;;-0.50;99.90;;;;;;5053337;28;20476;-36
2022/03/05 02:01:10;;;;;;;25.40;14.80;;;-0.50;99.90;;;;;;5054533;28;20048;-37
2022/03/05 02:03:37;;;;;;;21.13;13.57;;;-0.50;99.90;;;;;;5048510;28;20460;-37
2022/03/05 02:06:03;;;;;;;23.92;11.98;;;-0.60;99.90;;;;;;5052367;28;20048;-37
2022/03/05 02:08:30;;;;;;;22.90;13.10;;;-0.60;99.90;;;;;;5053341;28;20041;-37
2022/03/05 02:10:57;;;;;;;21.77;13.05;;;-0.60;99.90;;;;;;5053170;28;20420;-37
2022/03/05 02:13:27;;;;;;;20.75;12.27;;;-0.60;99.90;;;;;;5052500;28;20056;-37
2022/03/05 02:15:54;;;;;;;24.52;12.70;;;-0.60;99.90;;;;;;5043663;28;20465;-38
2022/03/05 02:18:21;;;;;;;20.45;12.80;;;-0.60;99.90;;;;;;5044836;28;20053;-37
2022/03/05 02:20:49;;;;;;;23.13;13.15;;;-0.60;99.90;;;;;;5049720;28;20128;-37
2022/03/05 02:23:16;;;;;;;18.55;11.80;;;-0.60;99.90;;;;;;5050681;28;20503;-38
2022/03/05 02:25:52;;;;;;;23.88;12.73;;;-0.70;99.90;;;;;;5052643;28;20060;-37
2022/03/05 02:28:19;;;;;;;21.02;12.15;;;-0.70;99.90;;;;;;5045062;28;20049;-36
2022/03/05 02:30:46;;;;;;;24.35;13.40;;;-0.80;99.90;;;;;;5050471;28;20057;-36
2022/03/05 02:33:12;;;;;;;19.63;11.98;;;-0.80;99.90;;;;;;5049186;28;20048;-42
2022/03/05 02:35:39;;;;;;;22.30;12.68;;;-0.80;99.90;;;;;;5052696;28;20053;-36
2022/03/05 02:38:07;;;;;;;20.70;12.82;;;-0.80;99.90;;;;;;5051360;28;20507;-36
2022/03/05 02:40:34;;;;;;;21.33;12.43;;;-0.90;99.90;;;;;;5052208;28;20063;-36
2022/03/05 02:43:01;;;;;;;19.30;11.93;;;-0.90;99.90;;;;;;5048575;28;20514;-36
2022/03/05 02:45:28;;;;;;;19.95;12.63;;;-0.90;99.90;;;;;;5052061;28;20144;-36
2022/03/05 02:47:54;;;;;;;21.02;11.40;;;-0.90;99.90;;;;;;5039799;28;20057;-37
2022/03/05 02:50:21;;;;;;;20.85;11.90;;;-0.90;99.90;;;;;;5052418;28;20100;-36
2022/03/05 02:52:48;;;;;;;19.40;11.80;;;-0.90;99.90;;;;;;5040508;28;20386;-36
2022/03/05 02:55:16;;;;;;;20.30;11.13;;;-1.00;99.90;;;;;;5051662;28;20056;-36
2022/03/05 02:57:43;;;;;;;19.20;10.82;;;-1.00;99.90;;;;;;5052036;28;20052;-37
2022/03/05 03:00:10;;;;;;;21.95;11.38;;;-1.00;99.90;;;;;;5052097;28;20048;-37
2022/03/05 03:02:37;;;;;;;20.75;10.98;;;-1.00;99.90;;;;;;5051752;28;20094;-36
2022/03/05 03:05:04;;;;;;;18.42;10.63;;;-1.00;99.90;;;;;;5051333;28;20056;-37
2022/03/05 03:07:31;;;;;;;24.45;10.68;;;-1.00;99.90;;;;;;5042650;28;20059;-36
2022/03/05 03:09:58;;;;;;;19.73;9.75;;;-1.10;99.90;;;;;;5052154;28;20135;-36
2022/03/05 03:12:26;;;;;;;18.33;9.85;;;-1.00;99.90;;;;;;5053122;28;20049;-36
2022/03/05 03:14:53;;;;;;;20.33;10.55;;;-1.00;99.90;;;;;;5051561;28;20053;-36
2022/03/05 03:17:20;;;;;;;20.75;10.35;;;-1.10;99.90;;;;;;5051171;28;20071;-35
2022/03/05 03:19:46;;;;;;;20.75;10.63;;;-1.10;99.90;;;;;;5043099;28;20152;-36
2022/03/05 03:22:14;;;;;;;22.02;9.98;;;-1.00;99.90;;;;;;5050687;28;20060;-36
2022/03/05 03:24:41;;;;;;;18.88;10.77;;;-1.10;99.90;;;;;;5051896;28;20045;-35
2022/03/05 03:27:08;;;;;;;18.35;10.20;;;-1.10;99.90;;;;;;5051517;28;20049;-36
2022/03/05 03:29:36;;;;;;;19.73;10.20;;;-1.10;99.90;;;;;;5049198;28;20053;-38
2022/03/05 03:32:04;;;;;;;19.45;10.70;;;-1.10;99.90;;;;;;5066440;28;20456;-37
2022/03/05 03:34:30;;;;;;;18.42;10.40;;;-1.10;99.90;;;;;;5049293;28;20061;-37
2022/03/05 03:36:57;;;;;;;21.52;10.90;;;-1.00;99.90;;;;;;5036560;28;20075;-38
2022/03/05 03:39:24;;;;;;;18.27;10.48;;;-1.10;99.90;;;;;;5051137;28;20401;-37
2022/03/05 03:41:50;;;;;;;22.10;10.45;;;-1.10;99.90;;;;;;5049784;28;20063;-38
2022/03/05 03:44:17;;;;;;;20.67;10.70;;;-1.10;99.90;;;;;;5041091;28;20405;-37
2022/03/05 03:46:45;;;;;;;21.55;10.48;;;-1.10;99.90;;;;;;5038979;28;20129;-35
2022/03/05 03:49:12;;;;;;;23.42;10.68;;;-1.10;99.90;;;;;;5043441;28;20481;-36
2022/03/05 03:51:39;;;;;;;18.65;10.82;;;-1.10;99.90;;;;;;5047251;28;20053;-37
2022/03/05 03:54:05;;;;;;;20.50;10.32;;;-1.10;99.90;;;;;;5048463;28;20057;-36
2022/03/05 03:56:32;;;;;;;19.13;10.38;;;-1.10;99.90;;;;;;5050642;28;20397;-36
2022/03/05 03:58:59;;;;;;;20.23;10.45;;;-1.10;99.90;;;;;;5051480;28;20056;-35
2022/03/05 04:01:26;;;;;;;21.75;11.00;;;-1.20;99.90;;;;;;5050358;28;20481;-35
2022/03/05 04:03:54;;;;;;;21.90;10.65;;;-1.20;99.90;;;;;;5052403;28;20059;-35
2022/03/05 04:06:20;;;;;;;20.40;10.48;;;-1.20;99.90;;;;;;5051075;28;20059;-36
2022/03/05 04:08:46;;;;;;;20.15;10.40;;;-1.20;99.90;;;;;;5048364;28;20354;-36
2022/03/05 04:11:14;;;;;;;21.80;10.88;;;-1.20;99.90;;;;;;5049137;28;20051;-36
2022/03/05 04:13:40;;;;;;;24.13;11.25;;;-1.10;99.90;;;;;;5047449;28;20045;-36
2022/03/05 04:16:07;;;;;;;25.35;10.88;;;-1.20;99.90;;;;;;5051265;28;20052;-36
2022/03/05 04:18:34;;;;;;;21.42;11.32;;;-1.20;99.90;;;;;;5043824;28;20089;-36
2022/03/05 04:21:03;;;;;;;20.30;10.38;;;-1.20;99.90;;;;;;5031673;28;20141;-36
2022/03/05 04:23:29;;;;;;;22.63;11.60;;;-1.20;99.90;;;;;;5060410;28;20137;-35
2022/03/05 04:25:56;;;;;;;19.95;10.55;;;-1.30;99.90;;;;;;5051487;28;20404;-35
2022/03/05 04:28:23;;;;;;;21.35;11.52;;;-1.20;99.90;;;;;;5050712;28;20048;-36
2022/03/05 04:30:49;;;;;;;20.58;10.95;;;-1.30;99.90;;;;;;5049463;28;20052;-36
2022/03/05 04:33:17;;;;;;;21.58;10.88;;;-1.30;99.90;;;;;;5051580;28;20115;-36
2022/03/05 04:35:43;;;;;;;27.00;12.13;;;-1.30;99.90;;;;;;5051011;28;20052;-36
2022/03/05 04:38:11;;;;;;;20.67;10.90;;;-1.30;99.90;;;;;;5051091;28;20051;-36
2022/03/05 04:40:38;;;;;;;26.75;11.50;;;-1.30;99.90;;;;;;5049707;28;20052;-37
2022/03/05 04:43:05;;;;;;;21.48;10.93;;;-1.30;99.90;;;;;;5045565;28;20053;-36
2022/03/05 04:45:32;;;;;;;21.73;10.45;;;-1.30;99.90;;;;;;5054121;28;20075;-36
2022/03/05 04:47:58;;;;;;;25.83;12.05;;;-1.40;99.90;;;;;;5054342;28;20484;-36
2022/03/05 04:50:25;;;;;;;24.40;11.73;;;-1.40;99.90;;;;;;5053093;28;20122;-36
2022/03/05 04:52:52;;;;;;;26.05;11.23;;;-1.40;99.90;;;;;;5041568;28;20077;-35
2022/03/05 04:55:20;;;;;;;22.50;11.32;;;-1.40;99.90;;;;;;5053394;28;20477;-35
2022/03/05 04:57:47;;;;;;;19.52;10.98;;;-1.40;99.90;;;;;;5055397;28;20462;-35
2022/03/05 05:00:15;;;;;;;20.00;10.95;;;-1.40;99.90;;;;;;5053130;28;20061;-38
2022/03/05 05:02:42;;;;;;;22.92;10.77;;;-1.40;99.90;;;;;;5036207;28;20054;-35
2022/03/05 05:05:10;;;;;;;23.67;11.40;;;-1.40;99.90;;;;;;5048004;28;20524;-35
2022/03/05 05:07:37;;;;;;;24.65;11.85;;;-1.40;99.90;;;;;;5053036;28;20063;-36
2022/03/05 05:10:05;;;;;;;22.98;11.48;;;-1.40;99.90;;;;;;5052522;28;20056;-36
2022/03/05 05:12:33;;;;;;;22.23;11.30;;;-1.40;99.90;;;;;;5045958;28;20138;-36
2022/03/05 05:14:59;;;;;;;24.67;11.55;;;-1.40;99.90;;;;;;5034710;28;20050;-35
2022/03/05 05:17:26;;;;;;;21.95;10.38;;;-1.40;99.90;;;;;;5053779;28;20136;-35
2022/03/05 05:19:53;;;;;;;22.10;11.00;;;-1.50;99.90;;;;;;5053396;28;20106;-35
2022/03/05 05:22:20;;;;;;;22.90;10.90;;;-1.40;99.90;;;;;;5052466;28;20048;-36
2022/03/05 05:24:46;;;;;;;22.20;11.30;;;-1.40;99.90;;;;;;5053175;28;20087;-35
2022/03/05 05:27:13;;;;;;;23.23;12.00;;;-1.50;99.90;;;;;;5055004;28;20122;-36
2022/03/05 05:29:41;;;;;;;20.58;10.70;;;-1.50;99.90;;;;;;5053398;28;20083;-36
2022/03/05 05:32:10;;;;;;;22.38;11.10;;;-1.50;99.90;;;;;;5054441;28;20060;-36
2022/03/05 05:34:36;;;;;;;22.40;11.07;;;-1.50;99.90;;;;;;5040318;28;20061;-36
2022/03/05 05:37:04;;;;;;;23.70;11.98;;;-1.50;99.90;;;;;;5049777;28;20471;-36
2022/03/05 05:39:30;;;;;;;22.95;11.95;;;-1.60;99.90;;;;;;5052696;28;20047;-36
2022/03/05 05:41:57;;;;;;;19.95;10.65;;;-1.60;99.90;;;;;;5052391;28;20060;-36
2022/03/05 05:44:24;;;;;;;20.50;10.30;;;-1.60;99.90;;;;;;5051559;28;20049;-35
2022/03/05 05:46:52;;;;;;;24.60;11.82;;;-1.60;99.90;;;;;;5050651;28;20053;-35
2022/03/05 05:49:18;;;;;;;22.65;10.88;;;-1.60;99.90;;;;;;5049375;28;20496;-35
2022/03/05 05:51:45;;;;;;;25.55;10.98;;;-1.60;99.90;;;;;;5053796;28;20409;-36
2022/03/05 05:54:12;;;;;;;21.08;10.32;;;-1.60;99.90;;;;;;5052388;28;20067;-35
2022/03/05 05:56:38;;;;;;;19.75;10.40;;;-1.60;99.90;;;;;;5040793;28;20060;-36
2022/03/05 05:59:05;;;;;;;22.75;10.35;;;-1.60;99.90;;;;;;5052836;28;20412;-36
2022/03/05 06:01:32;;;;;;;25.67;11.50;;;-1.70;99.90;;;;;;5052605;28;20634;-36
2022/03/05 06:04:00;;;;;;;20.38;10.32;;;-1.60;99.90;;;;;;5050322;28;20132;-35
2022/03/05 06:06:27;;;;;;;18.92;10.57;;;-1.70;99.90;;;;;;5051811;28;20049;-37
2022/03/05 06:08:54;;;;;;;23.35;10.93;;;-1.70;99.90;;;;;;5035586;28;20057;-36
2022/03/05 06:11:20;;;;;;;18.52;9.90;;;-1.70;99.90;;;;;;5041368;28;20077;-36
2022/03/05 06:13:47;;;;;;;19.58;10.02;;;-1.70;99.90;;;;;;5051039;28;20063;-36
2022/03/05 06:16:14;;;;;;;21.35;11.10;;;-1.70;99.90;;;;;;5045115;28;20095;-36
2022/03/05 06:18:40;;;;;;;19.50;10.05;;;-1.70;99.90;;;;;;5053147;28;20540;-36
2022/03/05 06:21:09;;;;;;;21.42;10.85;;;-1.70;99.90;;;;;;5052526;28;20057;-36
2022/03/05 06:23:35;;;;;;;21.30;10.07;;;-1.70;99.90;;;;;;5049336;28;20045;-36
2022/03/05 06:26:02;;;;;;;21.98;10.20;;;-1.70;99.90;;;;;;5040609;28;20052;-36
2022/03/05 06:28:29;;;;;;;19.75;9.80;;;-1.70;99.90;;;;;;5052954;28;20060;-36
2022/03/05 06:30:56;;;;;;;19.67;9.52;;;-1.80;99.90;;;;;;5051818;28;20148;-36
2022/03/05 06:33:22;;;;;;;21.92;10.45;;;-1.80;99.90;;;;;;5043916;28;20094;-35
2022/03/05 06:35:49;;;;;;;22.27;10.43;;;-1.70;99.90;;;;;;5049773;28;20041;-36
2022/03/05 06:38:17;;;;;;;17.73;9.75;;;-1.70;99.90;;;;;;5051176;28;20045;-36
2022/03/05 06:40:44;;;;;;;21.92;10.18;;;-1.70;99.90;;;;;;5050710;28;20045;-37
2022/03/05 06:43:11;;;;;;;20.10;9.80;;;-1.70;99.90;;;;;;5046886;28;20505;-36
2022/03/05 06:45:38;;;;;;;21.23;10.07;;;-1.70;99.90;;;;;;5046337;28;20068;-36
2022/03/05 06:48:05;;;;;;;19.92;10.15;;;-1.70;99.90;;;;;;5049897;28;20059;-36
2022/03/05 06:50:32;;;;;;;17.10;8.73;;;-1.70;99.90;;;;;;5052408;28;20045;-36
2022/03/05 06:52:59;;;;;;;20.95;9.65;;;-1.70;99.90;;;;;;5051061;28;20040;-35
2022/03/05 06:55:27;;;;;;;17.10;9.02;;;-1.70;99.90;;;;;;5050942;28;20065;-37
2022/03/05 06:57:54;;;;;;;23.45;10.52;;;-1.60;99.90;;;;;;5045838;28;20052;-35
2022/03/05 07:00:21;;;;;;;18.23;9.48;;;-1.60;99.90;;;;;;5048540;28;20053;-35
2022/03/05 07:02:48;;;;;;;19.63;9.57;;;-1.60;99.90;;;;;;5046581;28;20052;-35
2022/03/05 07:05:15;;;;;;;23.70;9.77;;;-1.60;99.90;;;;;;5051694;28;20059;-35
2022/03/05 07:07:41;;;;;;;17.58;9.68;;;-1.50;99.90;;;;;;5051422;28;20057;-36
2022/03/05 07:10:09;;;;;;;18.85;9.55;;;-1.50;99.90;;;;;;5047612;28;20051;-36
2022/03/05 07:12:37;;;;;;;15.85;9.02;;;-1.40;99.90;;;;;;5048789;28;20053;-36
2022/03/05 07:15:04;;;;;;;20.20;9.88;;;-1.30;99.90;;;;;;5050095;28;20059;-36
2022/03/05 07:17:32;;;;;;;17.30;9.70;;;-1.20;99.90;;;;;;5032569;28;20135;-36
2022/03/05 07:19:58;;;;;;;20.55;10.57;;;-1.10;99.90;;;;;;5051608;28;20071;-36
2022/03/05 07:22:25;;;;;;;21.50;10.57;;;-1.10;99.90;;;;;;5050845;28;20057;-36
2022/03/05 07:24:52;;;;;;;22.35;10.60;;;-1.00;99.90;;;;;;5049907;28;20049;-36
2022/03/05 07:27:18;;;;;;;19.30;9.85;;;-1.00;99.90;;;;;;5044903;28;20049;-36
2022/03/05 07:29:46;;;;;;;18.23;9.88;;;-0.90;99.90;;;;;;5049282;28;20136;-38
2022/03/05 07:32:13;;;;;;;22.00;11.15;;;-0.80;99.90;;;;;;5047661;28;20057;-38
2022/03/05 07:34:40;;;;;;;19.45;10.68;;;-0.80;99.90;;;;;;5042781;28;20083;-36
2022/03/05 07:37:07;;;;;;;21.75;10.73;;;-0.70;99.90;;;;;;5047954;28;20124;-36
2022/03/05 07:39:33;;;;;;;21.92;11.27;;;-0.60;99.90;;;;;;5042250;28;20059;-36
2022/03/05 07:42:00;;;;;;;22.77;11.48;;;-0.50;99.90;;;;;;5048066;28;20077;-37
2022/03/05 07:44:27;;;;;;;22.88;12.18;;;-0.40;99.90;;;;;;5046867;28;20148;-36
2022/03/05 07:46:55;;;;;;;24.20;12.35;;;-0.30;99.90;;;;;;5047709;28;20107;-36
2022/03/05 07:49:22;;;;;;;21.73;12.07;;;-0.20;99.90;;;;;;5049035;28;20049;-36
2022/03/05 07:51:48;;;;;;;19.63;9.98;;;-0.20;99.90;;;;;;5051460;28;20151;-36
2022/03/05 07:54:15;;;;;;;21.58;11.52;;;0.00;99.90;;;;;;5040492;28;20057;-36
2022/03/05 07:56:42;;;;;;;22.35;11.27;;;0.10;99.90;;;;;;5039294;28;20067;-36
2022/03/05 07:59:08;;;;;;;21.73;11.77;;;0.20;99.90;;;;;;5042428;28;20051;-36
2022/03/05 08:01:35;;;;;;;23.58;12.15;;;0.30;99.90;;;;;;5048793;28;20049;-37
2022/03/05 08:04:03;;;;;;;19.73;11.15;;;0.40;99.90;;;;;;5044490;28;20114;-37
2022/03/05 08:06:30;;;;;;;24.30;11.80;;;0.50;99.90;;;;;;5048848;28;20158;-36
2022/03/05 08:08:58;;;;;;;21.25;11.90;;;0.60;99.90;;;;;;5044893;28;20045;-37
2022/03/05 08:11:25;;;;;;;26.42;13.20;;;0.80;99.90;;;;;;5037425;28;20563;-37
2022/03/05 08:13:51;;;;;;;22.65;11.45;;;0.80;99.90;;;;;;5048428;28;20052;-38
2022/03/05 08:16:18;;;;;;;24.13;13.20;;;0.90;99.90;;;;;;5050086;28;20115;-37
2022/03/05 08:18:45;;;;;;;24.90;12.50;;;1.00;99.90;;;;;;5050409;28;20099;-37
2022/03/05 08:21:13;;;;;;;26.25;12.48;;;1.20;99.90;;;;;;5049907;28;20121;-37
2022/03/05 08:23:40;;;;;;;25.08;12.60;;;1.30;99.90;;;;;;5049163;28;20049;-37
2022/03/05 08:26:10;;;;;;;26.05;12.57;;;1.40;99.90;;;;;;5031263;28;20405;-36
2022/03/05 08:28:37;;;;;;;20.85;12.50;;;1.50;99.90;;;;;;5042443;28;20060;-36
2022/03/05 08:31:04;;;;;;;24.40;12.98;;;1.60;99.90;;;;;;5051903;28;20147;-36
2022/03/05 08:33:31;;;;;;;27.25;12.52;;;1.70;99.90;;;;;;5047791;28;21340;-37
2022/03/05 08:35:57;;;;;;;27.85;14.07;;;1.80;99.90;;;;;;5050931;28;20075;-37
2022/03/05 08:38:25;;;;;;;24.80;13.63;;;1.90;99.90;;;;;;5047974;28;20056;-37
2022/03/05 08:40:52;;;;;;;24.95;13.38;;;2.00;99.90;;;;;;5048195;28;20037;-37
2022/03/05 08:43:19;;;;;;;21.40;12.55;;;2.10;99.90;;;;;;5040298;28;20474;-37
2022/03/05 08:45:46;;;;;;;30.00;14.82;;;2.10;99.90;;;;;;5041848;28;20053;-38
2022/03/05 08:48:12;;;;;;;25.63;13.10;;;2.20;99.90;;;;;;5041377;28;20075;-36
2022/03/05 08:50:39;;;;;;;26.70;13.63;;;2.30;99.90;;;;;;5044319;28;20056;-36
2022/03/05 08:53:06;;;;;;;30.63;14.95;;;2.30;99.90;;;;;;5046282;28;20048;-37
2022/03/05 08:55:34;;;;;;;31.15;16.13;;;2.40;99.90;;;;;;5046219;28;20489;-37
2022/03/05 08:58:00;;;;;;;31.85;16.15;;;2.60;99.90;;;;;;5040476;28;20045;-36
2022/03/05 09:00:27;;;;;;;31.15;14.10;;;2.70;99.90;;;;;;5041680;28;20048;-36
2022/03/05 09:02:54;;;;;;;24.02;12.80;;;2.80;99.90;;;;;;5042898;28;20049;-36
2022/03/05 09:05:21;;;;;;;27.42;14.27;;;2.80;99.90;;;;;;5043380;28;20049;-37
2022/03/05 09:07:47;;;;;;;28.80;14.75;;;2.80;99.90;;;;;;5047504;28;20132;-36
2022/03/05 09:10:14;;;;;;;27.63;15.32;;;2.90;99.90;;;;;;5045036;28;20057;-36
2022/03/05 09:12:42;;;;;;;31.48;15.38;;;3.00;99.90;;;;;;5049589;28;20045;-36
2022/03/05 09:15:10;;;;;;;30.15;16.05;;;3.10;99.90;;;;;;5048531;28;20049;-37
2022/03/05 09:17:37;;;;;;;30.77;15.43;;;3.20;99.90;;;;;;5046257;28;20076;-37
2022/03/05 09:20:04;;;;;;;28.23;14.55;;;3.30;99.90;;;;;;5044280;28;20548;-36
2022/03/05 09:22:31;;;;;;;29.98;14.80;;;3.40;99.90;;;;;;5050299;28;20111;-36
2022/03/05 09:24:58;;;;;;;29.67;16.15;;;3.50;99.90;;;;;;5046913;28;20053;-35
2022/03/05 09:27:24;;;;;;;39.75;15.73;;;3.50;99.90;;;;;;5037691;28;20412;-37
2022/03/05 09:29:52;;;;;;;30.00;15.65;;;3.70;99.90;;;;;;5051358;28;20057;-38
2022/03/05 09:32:19;;;;;;;30.40;17.33;;;3.70;99.90;;;;;;5039968;28;20040;-37
2022/03/05 09:34:46;;;;;;;30.27;16.17;;;3.90;99.90;;;;;;5049650;28;20045;-37
2022/03/05 09:37:13;;;;;;;29.67;15.90;;;3.90;99.90;;;;;;5048636;28;20041;-38
2022/03/05 09:39:39;;;;;;;35.25;18.05;;;4.00;99.90;;;;;;5052507;28;20519;-37
2022/03/05 09:42:06;;;;;;;33.55;16.83;;;4.00;99.80;;;;;;5047207;28;20049;-37
2022/03/05 09:44:33;;;;;;;29.90;15.65;;;4.10;99.90;;;;;;5053121;28;20493;-37
2022/03/05 09:47:02;;;;;;;33.97;16.42;;;4.10;99.60;;;;;;5052637;28;20408;-37
2022/03/05 09:49:29;;;;;;;28.27;16.83;;;4.20;99.30;;;;;;5054639;28;20081;-37
2022/03/05 09:51:56;;;;;;;30.58;17.13;;;4.20;99.50;;;;;;5049434;28;21811;-37
2022/03/05 09:54:22;;;;;;;30.08;16.52;;;4.40;99.80;;;;;;5050561;28;20065;-38
2022/03/05 09:56:50;;;;;;;32.30;16.00;;;4.50;99.30;;;;;;5047817;28;20080;-37
2022/03/05 09:59:17;;;;;;;30.75;16.45;;;4.50;98.60;;;;;;5050940;28;20042;-38
2022/03/05 10:01:43;;;;;;;29.33;16.17;;;4.60;98.50;;;;;;5050771;28;20140;-37
2022/03/05 10:04:20;;;;;;;31.60;17.27;;;4.70;98.70;;;;;;5052328;28;20131;-38
2022/03/05 10:06:47;;;;;;;33.40;17.30;;;4.70;97.00;;;;;;5046796;28;20059;-38
2022/03/05 10:09:21;;;;;;;31.70;17.67;;;4.80;97.20;;;;;;5046471;28;20045;-38
2022/03/05 10:11:48;;;;;;;30.30;16.08;;;4.70;95.90;;;;;;5066958;28;20131;-39
2022/03/05 10:14:15;;;;;;;30.88;16.80;;;4.70;96.20;;;;;;5052308;28;20055;-38
2022/03/05 10:16:42;;;;;;;34.38;18.05;;;4.70;96.60;;;;;;5052133;28;20074;-38
2022/03/05 10:19:19;;;;;;;41.55;17.70;;;4.70;96.60;;;;;;5043162;28;20551;-38
2022/03/05 10:21:56;;;;;;;33.58;17.27;;;4.80;96.60;;;;;;5056990;28;20049;-38
2022/03/05 10:24:30;;;;;;;33.15;18.17;;;4.90;96.30;;;;;;5051020;28;20057;-38
2022/03/05 10:26:57;;;;;;;35.20;18.15;;;5.00;96.80;;;;;;5037430;28;20136;-38
2022/03/05 10:29:25;;;;;;;35.33;18.55;;;5.20;96.20;;;;;;5052229;28;20048;-39
2022/03/05 10:31:58;;;;;;;31.60;17.15;;;5.30;96.20;;;;;;5058217;28;20500;-39
2022/03/05 10:34:26;;;;;;;32.85;17.30;;;5.40;95.60;;;;;;5051091;28;20114;-39
2022/03/05 10:37:01;;;;;;;34.90;17.90;;;5.50;95.50;;;;;;5052536;28;20052;-39
2022/03/05 10:39:28;;;;;;;33.30;17.25;;;5.60;95.20;;;;;;5052012;28;20087;-39
2022/03/05 10:41:55;;;;;;;34.67;17.88;;;5.70;95.10;;;;;;5051217;28;20056;-39
2022/03/05 10:44:22;;;;;;;34.30;18.17;;;5.80;94.30;;;;;;5051338;28;20056;-38
2022/03/05 10:46:54;;;;;;;36.38;18.02;;;5.80;94.20;;;;;;5052007;28;20055;-38
2022/03/05 10:49:22;;;;;;;37.20;19.50;;;5.90;94.10;;;;;;5050988;28;20045;-38
2022/03/05 10:51:51;;;;;;;32.40;17.38;;;5.90;93.60;;;;;;5050185;28;20059;-38
2022/03/05 10:54:26;;;;;;;31.98;18.42;;;6.00;93.40;;;;;;5051811;28;20083;-38
2022/03/05 10:56:55;;;;;;;33.15;16.75;;;6.00;92.40;;;;;;5045185;28;20053;-38
2022/03/05 10:59:22;;;;;;;35.97;19.00;;;6.00;92.10;;;;;;5049539;28;20135;-37
2022/03/05 11:01:49;;;;;;;30.70;17.77;;;6.00;92.40;;;;;;5049972;28;20053;-38
2022/03/05 11:04:16;;;;;;;35.90;18.27;;;6.00;92.40;;;;;;5051075;28;20545;-38
2022/03/05 11:06:43;;;;;;;35.70;17.95;;;6.10;92.50;;;;;;5046111;28;20053;-38
2022/03/05 11:09:12;;;;;;;38.17;18.08;;;6.30;92.60;;;;;;5050804;28;20552;-37
2022/03/05 11:11:40;;;;;;;34.08;19.02;;;6.40;91.80;;;;;;5048639;28;20404;-38
2022/03/05 11:14:07;;;;;;;34.72;18.95;;;6.30;91.10;;;;;;5047878;28;20040;-38
2022/03/05 11:16:34;;;;;;;37.13;18.77;;;6.40;91.50;;;;;;5037276;28;20143;-37
2022/03/05 11:19:00;;;;;;;33.13;18.08;;;6.40;91.20;;;;;;5045816;28;20129;-38
2022/03/05 11:21:28;;;;;;;34.10;18.25;;;6.50;90.90;;;;;;5049765;28;20485;-38
2022/03/05 11:23:56;;;;;;;33.83;18.73;;;6.50;90.40;;;;;;5050238;28;20060;-38
2022/03/05 11:26:24;;;;;;;35.10;17.52;;;6.50;90.10;;;;;;5041345;28;20124;-38
2022/03/05 11:28:51;;;;;;;32.53;17.95;;;6.50;89.20;;;;;;5053394;28;20067;-38
2022/03/05 11:31:19;;;;;;;36.25;18.33;;;6.50;90.20;;;;;;5041994;28;20056;-37
2022/03/05 11:33:46;;;;;;;32.80;17.70;;;6.60;89.30;;;;;;5045063;28;20061;-38
2022/03/05 11:36:30;;;;;;;33.42;17.50;;;6.60;89.00;;;;;;5050165;28;20060;-37
2022/03/05 11:39:07;;;;;;;33.42;18.92;;;6.70;88.10;;;;;;5041897;28;20061;-37
2022/03/05 11:41:47;;;;;;;34.97;18.20;;;6.80;87.80;;;;;;5045166;28;20515;-39
2022/03/05 11:44:14;;;;;;;32.67;18.67;;;6.80;87.80;;;;;;5042330;28;20099;-38
2022/03/05 11:46:41;;;;;;;36.50;18.38;;;6.90;88.10;;;;;;5052449;28;20053;-39
2022/03/05 11:49:08;;;;;;;33.63;18.45;;;7.00;88.30;;;;;;5040576;28;20049;-38
2022/03/05 11:51:35;;;;;;;31.13;18.02;;;7.10;88.60;;;;;;5036886;28;20057;-37
2022/03/05 11:54:07;;;;;;;35.50;18.10;;;7.20;87.20;;;;;;5045252;28;20048;-38
2022/03/05 11:56:35;;;;;;;;;;;7.30;85.70;;;;;;5045531;28;20063;-37
2022/03/05 11:59:29;;;;;;;32.65;18.42;;;7.40;84.30;;;;;;5048505;28;19933;-38
2022/03/05 12:01:55;;;;;;;32.55;18.77;;;7.40;82.50;;;;;;5044555;28;20053;-38
2022/03/05 12:04:23;;;;;;;32.85;17.80;;;7.50;85.40;;;;;;5048771;28;20065;-38
2022/03/05 12:06:59;;;;;;;34.58;17.48;;;7.50;84.80;;;;;;5056239;28;20048;-38
2022/03/05 12:09:37;;;;;;;33.17;19.08;;;7.60;84.20;;;;;;5041693;28;20057;-38
2022/03/05 12:12:05;;;;;;;30.90;17.77;;;7.70;81.80;;;;;;5041714;28;20053;-38
2022/03/05 12:15:10;;;;;;;35.17;18.80;;;7.70;84.60;;;;;;5046160;28;20053;-38
2022/03/05 12:17:38;;;;;;;35.42;19.48;;;7.80;79.80;;;;;;5050577;28;20061;-38
2022/03/05 12:20:06;;;;;;;38.72;19.48;;;7.80;82.90;;;;;;5052565;28;20048;-37
2022/03/05 12:22:32;;;;;;;33.72;19.45;;;7.80;82.70;;;;;;5049105;28;20143;-35
2022/03/05 12:24:59;;;;;;;37.00;19.48;;;7.80;82.10;;;;;;5048517;28;20049;-36
2022/03/05 12:27:29;;;;;;;34.75;19.42;;;7.90;82.70;;;;;;5042955;28;20059;-36
2022/03/05 12:29:56;;;;;;;32.38;18.52;;;8.00;79.80;;;;;;5045895;28;20059;-36
2022/03/05 12:32:29;;;;;;;33.08;18.05;;;8.00;82.00;;;;;;5047714;28;20485;-35
2022/03/05 12:35:03;;;;;;;35.58;19.33;;;8.10;80.10;;;;;;5045173;28;20052;-35